sensor_id;sensor_type;location;lat;lon;timestamp;temperature;humidity
24232;DHT22;12364;47.810;8.810;2023-03-23T04:47:39;13.90;91.10
24232;DHT22;12364;47.810;8.810;2023-03-23T04:50:07;13.90;91.20
24232;DHT22;12364;47.810;8.810;2023-03-23T04:52:33;13.90;91.40
24232;DHT22;12364;47.810;8.810;2023-03-23T04:54:59;13.90;91.40
24232;DHT22;12364;47.810;8.810;2023-03-23T04:57:25;13.90;91.40
24232;DHT22;12364;47.810;8.810;2023-03-23T04:59:53;13.90;91.40
24232;DHT22;12364;47.810;8.810;2023-03-23T05:02:19;13.90;91.40
24232;DHT22;12364;47.810;8.810;2023-03-23T05:04:45;13.80;91.40
24232;DHT22;12364;47.810;8.810;2023-03-23T05:07:11;13.90;91.50
24232;DHT22;12364;47.810;8.810;2023-03-23T05:09:37;13.80;91.40
24232;DHT22;12364;47.810;8.810;2023-03-23T05:12:06;13.80;91.40
24232;DHT22;12364;47.810;8.810;2023-03-23T05:14:32;13.70;91.30
24232;DHT22;12364;47.810;8.810;2023-03-23T05:16:58;13.70;91.20
24232;DHT22;12364;47.810;8.810;2023-03-23T05:19:24;13.80;91.30
24232;DHT22;12364;47.810;8.810;2023-03-23T05:21:50;13.70;91.20
24232;DHT22;12364;47.810;8.810;2023-03-23T05:24:16;13.70;91.30
24232;DHT22;12364;47.810;8.810;2023-03-23T05:26:43;13.60;91.20
24232;DHT22;12364;47.810;8.810;2023-03-23T05:29:10;13.70;91.20
24232;DHT22;12364;47.810;8.810;2023-03-23T05:31:36;13.60;91.20
24232;DHT22;12364;47.810;8.810;2023-03-23T05:34:03;13.70;91.20
24232;DHT22;12364;47.810;8.810;2023-03-23T05:36:29;13.70;91.20
24232;DHT22;12364;47.810;8.810;2023-03-23T05:38:55;13.70;91.30
24232;DHT22;12364;47.810;8.810;2023-03-23T05:41:22;13.70;91.30
24232;DHT22;12364;47.810;8.810;2023-03-23T05:43:48;13.70;91.30
24232;DHT22;12364;47.810;8.810;2023-03-23T05:46:14;13.70;91.40
24232;DHT22;12364;47.810;8.810;2023-03-23T05:48:40;13.80;91.40
24232;DHT22;12364;47.810;8.810;2023-03-23T05:51:06;13.80;91.40
24232;DHT22;12364;47.810;8.810;2023-03-23T05:53:32;13.70;91.50
24232;DHT22;12364;47.810;8.810;2023-03-23T05:55:59;13.70;91.50
24232;DHT22;12364;47.810;8.810;2023-03-23T05:58:25;13.60;91.60
24232;DHT22;12364;47.810;8.810;2023-03-23T06:00:51;13.60;91.70
24232;DHT22;12364;47.810;8.810;2023-03-23T06:03:17;13.50;92.10
24232;DHT22;12364;47.810;8.810;2023-03-23T06:05:43;13.70;91.90
24232;DHT22;12364;47.810;8.810;2023-03-23T06:08:12;13.70;91.80
24232;DHT22;12364;47.810;8.810;2023-03-23T06:10:37;13.60;91.70
24232;DHT22;12364;47.810;8.810;2023-03-23T06:13:04;13.80;92.00
24232;DHT22;12364;47.810;8.810;2023-03-23T06:15:30;14.00;91.90
24232;DHT22;12364;47.810;8.810;2023-03-23T06:18:01;13.90;91.90
24232;DHT22;12364;47.810;8.810;2023-03-23T06:20:27;13.90;91.90
24232;DHT22;12364;47.810;8.810;2023-03-23T06:22:53;14.00;91.80
24232;DHT22;12364;47.810;8.810;2023-03-23T06:25:19;14.00;91.90
24232;DHT22;12364;47.810;8.810;2023-03-23T06:27:45;14.00;92.00
24232;DHT22;12364;47.810;8.810;2023-03-23T06:30:14;14.00;92.10
24232;DHT22;12364;47.810;8.810;2023-03-23T06:32:40;13.90;92.10
24232;DHT22;12364;47.810;8.810;2023-03-23T06:35:08;13.90;92.10
24232;DHT22;12364;47.810;8.810;2023-03-23T06:37:35;14.00;92.20
24232;DHT22;12364;47.810;8.810;2023-03-23T06:40:02;14.00;92.20
24232;DHT22;12364;47.810;8.810;2023-03-23T06:42:29;14.00;92.30
24232;DHT22;12364;47.810;8.810;2023-03-23T06:44:55;13.90;92.40
24232;DHT22;12364;47.810;8.810;2023-03-23T06:47:26;13.90;92.80
24232;DHT22;12364;47.810;8.810;2023-03-23T06:49:52;13.90;92.50
24232;DHT22;12364;47.810;8.810;2023-03-23T06:52:18;14.00;92.50
24232;DHT22;12364;47.810;8.810;2023-03-23T06:54:44;14.00;92.30
24232;DHT22;12364;47.810;8.810;2023-03-23T06:57:10;14.10;92.30
24232;DHT22;12364;47.810;8.810;2023-03-23T06:59:36;14.10;92.30
24232;DHT22;12364;47.810;8.810;2023-03-23T07:02:02;14.10;92.20
24232;DHT22;12364;47.810;8.810;2023-03-23T07:04:28;14.20;92.10
24232;DHT22;12364;47.810;8.810;2023-03-23T07:06:54;14.30;92.20
24232;DHT22;12364;47.810;8.810;2023-03-23T07:09:20;14.30;92.00
24232;DHT22;12364;47.810;8.810;2023-03-23T07:11:46;14.30;91.70
24232;DHT22;12364;47.810;8.810;2023-03-23T07:14:13;14.30;91.70
24232;DHT22;12364;47.810;8.810;2023-03-23T07:16:39;14.40;91.50
24232;DHT22;12364;47.810;8.810;2023-03-23T07:19:05;14.50;91.50
24232;DHT22;12364;47.810;8.810;2023-03-23T07:21:31;14.50;91.20
24232;DHT22;12364;47.810;8.810;2023-03-23T07:23:57;14.60;91.00
24232;DHT22;12364;47.810;8.810;2023-03-23T07:26:23;14.70;91.00
24232;DHT22;12364;47.810;8.810;2023-03-23T07:28:49;14.80;90.90
24232;DHT22;12364;47.810;8.810;2023-03-23T07:31:15;14.80;90.50
24232;DHT22;12364;47.810;8.810;2023-03-23T07:33:41;15.00;90.30
24232;DHT22;12364;47.810;8.810;2023-03-23T07:36:07;15.00;90.30
24232;DHT22;12364;47.810;8.810;2023-03-23T07:38:33;15.00;90.30
24232;DHT22;12364;47.810;8.810;2023-03-23T07:40:59;15.20;90.30
24232;DHT22;12364;47.810;8.810;2023-03-23T07:43:25;15.20;90.10
24232;DHT22;12364;47.810;8.810;2023-03-23T07:45:51;15.20;90.10
24232;DHT22;12364;47.810;8.810;2023-03-23T07:48:17;15.30;90.10
24232;DHT22;12364;47.810;8.810;2023-03-23T07:50:43;15.40;90.10
24232;DHT22;12364;47.810;8.810;2023-03-23T07:53:09;15.50;90.20
24232;DHT22;12364;47.810;8.810;2023-03-23T07:55:36;15.60;90.50
24232;DHT22;12364;47.810;8.810;2023-03-23T07:58:02;15.50;90.30
24232;DHT22;12364;47.810;8.810;2023-03-23T08:00:28;15.60;90.30
24232;DHT22;12364;47.810;8.810;2023-03-23T08:02:56;15.60;90.30
24232;DHT22;12364;47.810;8.810;2023-03-23T08:05:23;15.60;90.20
24232;DHT22;12364;47.810;8.810;2023-03-23T08:07:51;15.70;90.10
24232;DHT22;12364;47.810;8.810;2023-03-23T08:10:19;15.70;88.80
24232;DHT22;12364;47.810;8.810;2023-03-23T08:12:50;15.70;88.50
24232;DHT22;12364;47.810;8.810;2023-03-23T08:15:17;15.70;88.60
24232;DHT22;12364;47.810;8.810;2023-03-23T08:17:43;15.60;89.80
24232;DHT22;12364;47.810;8.810;2023-03-23T08:20:10;15.70;90.20
24232;DHT22;12364;47.810;8.810;2023-03-23T08:22:39;15.70;90.20
24232;DHT22;12364;47.810;8.810;2023-03-23T08:25:06;15.70;90.20
24232;DHT22;12364;47.810;8.810;2023-03-23T08:27:32;15.80;90.20
24232;DHT22;12364;47.810;8.810;2023-03-23T08:29:58;15.80;90.30
24232;DHT22;12364;47.810;8.810;2023-03-23T08:32:25;15.90;90.50
24232;DHT22;12364;47.810;8.810;2023-03-23T08:34:51;15.90;90.60
24232;DHT22;12364;47.810;8.810;2023-03-23T08:37:17;15.90;90.70
24232;DHT22;12364;47.810;8.810;2023-03-23T08:39:43;16.00;90.90
24232;DHT22;12364;47.810;8.810;2023-03-23T08:42:09;16.10;91.00
24232;DHT22;12364;47.810;8.810;2023-03-23T08:44:36;16.10;91.10
24232;DHT22;12364;47.810;8.810;2023-03-23T08:47:02;16.00;91.20
24232;DHT22;12364;47.810;8.810;2023-03-23T08:49:29;16.10;91.20
24232;DHT22;12364;47.810;8.810;2023-03-23T08:51:58;16.10;91.20
24232;DHT22;12364;47.810;8.810;2023-03-23T08:54:24;16.10;91.30
24232;DHT22;12364;47.810;8.810;2023-03-23T08:56:50;16.10;91.40
24232;DHT22;12364;47.810;8.810;2023-03-23T08:59:16;16.20;91.60
24232;DHT22;12364;47.810;8.810;2023-03-23T09:01:42;16.20;91.50
24232;DHT22;12364;47.810;8.810;2023-03-23T09:04:08;16.30;91.40
24232;DHT22;12364;47.810;8.810;2023-03-23T09:06:34;16.40;91.20
24232;DHT22;12364;47.810;8.810;2023-03-23T09:09:00;16.50;90.40
24232;DHT22;12364;47.810;8.810;2023-03-23T09:11:28;16.50;90.10
24232;DHT22;12364;47.810;8.810;2023-03-23T09:13:54;16.60;89.80
24232;DHT22;12364;47.810;8.810;2023-03-23T09:16:20;16.70;88.90
24232;DHT22;12364;47.810;8.810;2023-03-23T09:18:46;16.80;88.50
24232;DHT22;12364;47.810;8.810;2023-03-23T09:21:11;16.80;88.30
24232;DHT22;12364;47.810;8.810;2023-03-23T09:23:38;17.00;88.80
24232;DHT22;12364;47.810;8.810;2023-03-23T09:26:04;17.00;88.60
24232;DHT22;12364;47.810;8.810;2023-03-23T09:28:30;17.10;88.90
24232;DHT22;12364;47.810;8.810;2023-03-23T09:30:56;17.20;88.30
24232;DHT22;12364;47.810;8.810;2023-03-23T09:33:23;17.30;88.10
24232;DHT22;12364;47.810;8.810;2023-03-23T09:35:49;17.40;87.90
24232;DHT22;12364;47.810;8.810;2023-03-23T09:38:15;17.40;87.70
24232;DHT22;12364;47.810;8.810;2023-03-23T09:40:48;17.50;87.70
24232;DHT22;12364;47.810;8.810;2023-03-23T09:50:51;17.70;87.50
24232;DHT22;12364;47.810;8.810;2023-03-23T09:55:44;17.80;87.00
24232;DHT22;12364;47.810;8.810;2023-03-23T09:58:17;17.80;87.00
24232;DHT22;12364;47.810;8.810;2023-03-23T10:00:50;17.90;86.70
24232;DHT22;12364;47.810;8.810;2023-03-23T10:03:22;17.90;85.00
24232;DHT22;12364;47.810;8.810;2023-03-23T10:05:51;18.00;86.00
24232;DHT22;12364;47.810;8.810;2023-03-23T10:08:19;18.00;85.20
24232;DHT22;12364;47.810;8.810;2023-03-23T10:11:02;18.00;85.10
24232;DHT22;12364;47.810;8.810;2023-03-23T10:13:38;17.90;84.80
24232;DHT22;12364;47.810;8.810;2023-03-23T10:16:10;18.00;85.60
24232;DHT22;12364;47.810;8.810;2023-03-23T10:18:41;18.10;85.80
24232;DHT22;12364;47.810;8.810;2023-03-23T10:21:10;18.20;85.70
24232;DHT22;12364;47.810;8.810;2023-03-23T10:26:25;18.30;84.40
24232;DHT22;12364;47.810;8.810;2023-03-23T10:31:42;18.00;83.70
24232;DHT22;12364;47.810;8.810;2023-03-23T10:34:10;18.30;84.40
24232;DHT22;12364;47.810;8.810;2023-03-23T10:36:38;18.40;84.50
24232;DHT22;12364;47.810;8.810;2023-03-23T10:39:11;18.50;83.90
24232;DHT22;12364;47.810;8.810;2023-03-23T10:41:38;18.60;82.70
24232;DHT22;12364;47.810;8.810;2023-03-23T10:44:11;18.60;83.40
24232;DHT22;12364;47.810;8.810;2023-03-23T10:49:09;18.60;82.80
24232;DHT22;12364;47.810;8.810;2023-03-23T10:51:39;18.70;83.00
24232;DHT22;12364;47.810;8.810;2023-03-23T10:54:05;18.70;83.20
24232;DHT22;12364;47.810;8.810;2023-03-23T10:56:39;18.70;83.00
24232;DHT22;12364;47.810;8.810;2023-03-23T10:59:12;18.70;83.10
24232;DHT22;12364;47.810;8.810;2023-03-23T11:01:42;18.70;82.10
24232;DHT22;12364;47.810;8.810;2023-03-23T11:04:12;18.70;82.00
24232;DHT22;12364;47.810;8.810;2023-03-23T11:06:38;18.70;82.40
24232;DHT22;12364;47.810;8.810;2023-03-23T11:09:13;18.70;82.30
24232;DHT22;12364;47.810;8.810;2023-03-23T11:11:41;18.70;82.90
24232;DHT22;12364;47.810;8.810;2023-03-23T11:16:42;18.80;82.60
24232;DHT22;12364;47.810;8.810;2023-03-23T11:19:14;18.80;83.30
24232;DHT22;12364;47.810;8.810;2023-03-23T11:21:40;18.90;83.50
24232;DHT22;12364;47.810;8.810;2023-03-23T11:24:11;18.90;82.90
24232;DHT22;12364;47.810;8.810;2023-03-23T11:26:37;19.00;83.70
24232;DHT22;12364;47.810;8.810;2023-03-23T11:31:37;19.10;83.30
24232;DHT22;12364;47.810;8.810;2023-03-23T11:34:04;19.10;83.30
24232;DHT22;12364;47.810;8.810;2023-03-23T11:36:35;19.20;83.00
24232;DHT22;12364;47.810;8.810;2023-03-23T11:39:02;19.20;82.80
24232;DHT22;12364;47.810;8.810;2023-03-23T11:41:35;19.20;82.80
24232;DHT22;12364;47.810;8.810;2023-03-23T11:44:08;19.30;82.10
24232;DHT22;12364;47.810;8.810;2023-03-23T11:46:38;19.30;82.20
24232;DHT22;12364;47.810;8.810;2023-03-23T11:49:08;19.40;81.40
24232;DHT22;12364;47.810;8.810;2023-03-23T11:54:04;19.40;82.00
24232;DHT22;12364;47.810;8.810;2023-03-23T11:56:36;19.50;81.50
24232;DHT22;12364;47.810;8.810;2023-03-23T11:59:03;19.50;81.90
24232;DHT22;12364;47.810;8.810;2023-03-23T12:07:01;19.60;82.70
24232;DHT22;12364;47.810;8.810;2023-03-23T12:14:48;19.70;81.80
24232;DHT22;12364;47.810;8.810;2023-03-23T12:29:53;19.60;81.70
24232;DHT22;12364;47.810;8.810;2023-03-23T12:34:53;19.30;80.80
24232;DHT22;12364;47.810;8.810;2023-03-23T12:40:17;19.30;82.10
24232;DHT22;12364;47.810;8.810;2023-03-23T12:42:55;19.40;82.30
24232;DHT22;12364;47.810;8.810;2023-03-23T12:48:12;19.60;81.40
24232;DHT22;12364;47.810;8.810;2023-03-23T12:50:41;19.50;80.80
24232;DHT22;12364;47.810;8.810;2023-03-23T12:53:10;19.40;81.40
24232;DHT22;12364;47.810;8.810;2023-03-23T12:55:43;19.40;82.20
24232;DHT22;12364;47.810;8.810;2023-03-23T13:06:15;19.40;82.20
24232;DHT22;12364;47.810;8.810;2023-03-23T13:08:40;19.50;81.40
24232;DHT22;12364;47.810;8.810;2023-03-23T13:11:11;19.50;82.60
24232;DHT22;12364;47.810;8.810;2023-03-23T13:13:41;19.40;81.90
24232;DHT22;12364;47.810;8.810;2023-03-23T13:21:32;19.00;83.60
24232;DHT22;12364;47.810;8.810;2023-03-23T13:24:04;18.90;84.00
24232;DHT22;12364;47.810;8.810;2023-03-23T13:26:31;18.90;83.70
24232;DHT22;12364;47.810;8.810;2023-03-23T13:28:58;18.80;83.90
24232;DHT22;12364;47.810;8.810;2023-03-23T13:31:34;18.90;83.20
24232;DHT22;12364;47.810;8.810;2023-03-23T13:36:28;18.90;83.50
24232;DHT22;12364;47.810;8.810;2023-03-23T13:38:55;18.90;84.20
24232;DHT22;12364;47.810;8.810;2023-03-23T13:41:23;19.10;84.80
24232;DHT22;12364;47.810;8.810;2023-03-23T13:43:49;19.10;84.90
24232;DHT22;12364;47.810;8.810;2023-03-23T13:48:45;19.30;85.10
24232;DHT22;12364;47.810;8.810;2023-03-23T13:51:26;19.30;85.20
24232;DHT22;12364;47.810;8.810;2023-03-23T13:54:04;19.30;85.20
24232;DHT22;12364;47.810;8.810;2023-03-23T14:01:54;19.10;84.10
24232;DHT22;12364;47.810;8.810;2023-03-23T14:04:21;19.10;83.70
24232;DHT22;12364;47.810;8.810;2023-03-23T14:06:49;19.10;83.70
24232;DHT22;12364;47.810;8.810;2023-03-23T14:09:19;19.10;84.10
24232;DHT22;12364;47.810;8.810;2023-03-23T14:11:50;19.20;84.10
24232;DHT22;12364;47.810;8.810;2023-03-23T14:14:20;19.20;83.40
24232;DHT22;12364;47.810;8.810;2023-03-23T14:16:50;19.10;84.00
24232;DHT22;12364;47.810;8.810;2023-03-23T14:21:54;19.20;84.20
24232;DHT22;12364;47.810;8.810;2023-03-23T14:24:22;19.40;83.80
24232;DHT22;12364;47.810;8.810;2023-03-23T14:26:52;19.40;83.50
24232;DHT22;12364;47.810;8.810;2023-03-23T14:29:18;19.50;83.60
24232;DHT22;12364;47.810;8.810;2023-03-23T14:31:44;19.40;83.30
24232;DHT22;12364;47.810;8.810;2023-03-23T14:34:14;19.30;82.90
24232;DHT22;12364;47.810;8.810;2023-03-23T14:36:41;19.30;83.30
24232;DHT22;12364;47.810;8.810;2023-03-23T14:39:16;19.30;82.60
24232;DHT22;12364;47.810;8.810;2023-03-23T14:41:43;19.20;83.50
24232;DHT22;12364;47.810;8.810;2023-03-23T14:44:12;19.20;83.00
24232;DHT22;12364;47.810;8.810;2023-03-23T14:46:38;19.30;83.40
24232;DHT22;12364;47.810;8.810;2023-03-23T14:49:04;19.30;83.00
24232;DHT22;12364;47.810;8.810;2023-03-23T14:51:31;19.40;83.40
24232;DHT22;12364;47.810;8.810;2023-03-23T14:54:00;19.40;83.30
24232;DHT22;12364;47.810;8.810;2023-03-23T14:56:35;19.40;83.30
24232;DHT22;12364;47.810;8.810;2023-03-23T14:59:03;19.40;83.80
24232;DHT22;12364;47.810;8.810;2023-03-23T15:01:30;19.50;84.40
24232;DHT22;12364;47.810;8.810;2023-03-23T15:04:10;19.50;83.50
24232;DHT22;12364;47.810;8.810;2023-03-23T15:06:38;19.50;82.90
24232;DHT22;12364;47.810;8.810;2023-03-23T15:09:14;19.40;83.10
24232;DHT22;12364;47.810;8.810;2023-03-23T15:11:41;19.50;83.50
24232;DHT22;12364;47.810;8.810;2023-03-23T15:14:24;19.30;82.60
24232;DHT22;12364;47.810;8.810;2023-03-23T15:16:53;19.20;82.90
24232;DHT22;12364;47.810;8.810;2023-03-23T15:22:32;18.80;83.30
24232;DHT22;12364;47.810;8.810;2023-03-23T15:25:03;18.70;83.80
24232;DHT22;12364;47.810;8.810;2023-03-23T15:27:30;18.70;83.60
24232;DHT22;12364;47.810;8.810;2023-03-23T15:29:58;18.70;83.70
24232;DHT22;12364;47.810;8.810;2023-03-23T15:32:29;18.70;84.00
24232;DHT22;12364;47.810;8.810;2023-03-23T15:34:56;18.60;84.10
24232;DHT22;12364;47.810;8.810;2023-03-23T15:37:25;18.50;83.90
24232;DHT22;12364;47.810;8.810;2023-03-23T15:39:52;18.60;84.30
24232;DHT22;12364;47.810;8.810;2023-03-23T15:42:25;18.50;84.40
24232;DHT22;12364;47.810;8.810;2023-03-23T15:44:56;18.50;84.40
24232;DHT22;12364;47.810;8.810;2023-03-23T15:47:22;18.50;84.00
24232;DHT22;12364;47.810;8.810;2023-03-23T15:50:50;18.50;83.60
24232;DHT22;12364;47.810;8.810;2023-03-23T15:52:45;18.40;83.70
24232;DHT22;12364;47.810;8.810;2023-03-23T15:55:35;18.40;84.10
24232;DHT22;12364;47.810;8.810;2023-03-23T15:58:01;18.50;84.20
24232;DHT22;12364;47.810;8.810;2023-03-23T16:00:31;18.60;83.90
24232;DHT22;12364;47.810;8.810;2023-03-23T16:02:59;18.70;84.30
24232;DHT22;12364;47.810;8.810;2023-03-23T16:05:27;18.80;83.80
24232;DHT22;12364;47.810;8.810;2023-03-23T16:07:54;18.90;83.60
24232;DHT22;12364;47.810;8.810;2023-03-23T16:10:22;18.90;83.60
24232;DHT22;12364;47.810;8.810;2023-03-23T16:12:49;18.80;83.60
24232;DHT22;12364;47.810;8.810;2023-03-23T16:15:16;18.70;83.70
24232;DHT22;12364;47.810;8.810;2023-03-23T16:17:43;18.80;84.00
24232;DHT22;12364;47.810;8.810;2023-03-23T16:20:14;18.80;83.50
24232;DHT22;12364;47.810;8.810;2023-03-23T16:22:41;18.70;83.30
24232;DHT22;12364;47.810;8.810;2023-03-23T16:25:09;18.70;83.80
24232;DHT22;12364;47.810;8.810;2023-03-23T16:27:36;18.80;83.70
24232;DHT22;12364;47.810;8.810;2023-03-23T16:32:42;18.90;83.50
24232;DHT22;12364;47.810;8.810;2023-03-23T16:35:09;18.90;83.60
24232;DHT22;12364;47.810;8.810;2023-03-23T16:37:37;18.90;83.50
24232;DHT22;12364;47.810;8.810;2023-03-23T16:40:04;18.90;83.80
24232;DHT22;12364;47.810;8.810;2023-03-23T16:42:32;19.00;83.30
24232;DHT22;12364;47.810;8.810;2023-03-23T16:44:58;19.00;83.10
24232;DHT22;12364;47.810;8.810;2023-03-23T16:47:25;18.90;82.90
24232;DHT22;12364;47.810;8.810;2023-03-23T16:49:52;18.90;83.10
24232;DHT22;12364;47.810;8.810;2023-03-23T16:52:19;19.00;83.20
24232;DHT22;12364;47.810;8.810;2023-03-23T16:54:47;18.90;83.10
24232;DHT22;12364;47.810;8.810;2023-03-23T16:57:14;18.90;82.90
24232;DHT22;12364;47.810;8.810;2023-03-23T16:59:42;18.90;82.50
24232;DHT22;12364;47.810;8.810;2023-03-23T17:02:10;18.90;82.80
24232;DHT22;12364;47.810;8.810;2023-03-23T17:04:41;18.80;82.90
24232;DHT22;12364;47.810;8.810;2023-03-23T17:07:08;18.80;82.80
24232;DHT22;12364;47.810;8.810;2023-03-23T17:09:35;18.80;82.60
24232;DHT22;12364;47.810;8.810;2023-03-23T17:12:02;18.70;82.40
24232;DHT22;12364;47.810;8.810;2023-03-23T17:14:29;18.70;82.40
24232;DHT22;12364;47.810;8.810;2023-03-23T17:16:56;18.70;82.70
24232;DHT22;12364;47.810;8.810;2023-03-23T17:19:23;18.80;82.60
24232;DHT22;12364;47.810;8.810;2023-03-23T17:21:50;18.90;82.30
24232;DHT22;12364;47.810;8.810;2023-03-23T17:24:17;18.90;82.60
24232;DHT22;12364;47.810;8.810;2023-03-23T17:26:44;19.10;82.30
24232;DHT22;12364;47.810;8.810;2023-03-23T17:29:11;19.00;82.00
24232;DHT22;12364;47.810;8.810;2023-03-23T17:31:38;19.10;81.90
24232;DHT22;12364;47.810;8.810;2023-03-23T17:34:07;19.00;81.60
24232;DHT22;12364;47.810;8.810;2023-03-23T17:36:34;19.00;81.40
24232;DHT22;12364;47.810;8.810;2023-03-23T17:39:01;18.90;81.80
24232;DHT22;12364;47.810;8.810;2023-03-23T17:41:28;19.00;81.90
24232;DHT22;12364;47.810;8.810;2023-03-23T17:43:55;19.00;81.70
24232;DHT22;12364;47.810;8.810;2023-03-23T17:46:22;19.00;81.40
24232;DHT22;12364;47.810;8.810;2023-03-23T17:48:50;19.00;82.00
24232;DHT22;12364;47.810;8.810;2023-03-23T17:51:17;19.10;81.70
24232;DHT22;12364;47.810;8.810;2023-03-23T17:53:44;19.00;81.70
24232;DHT22;12364;47.810;8.810;2023-03-23T17:56:11;19.00;81.20
24232;DHT22;12364;47.810;8.810;2023-03-23T17:58:38;19.00;81.70
24232;DHT22;12364;47.810;8.810;2023-03-23T18:01:05;19.00;81.50
24232;DHT22;12364;47.810;8.810;2023-03-23T18:03:33;19.00;80.90
24232;DHT22;12364;47.810;8.810;2023-03-23T18:06:02;19.00;81.30
24232;DHT22;12364;47.810;8.810;2023-03-23T18:08:29;18.90;80.80
24232;DHT22;12364;47.810;8.810;2023-03-23T18:10:56;19.00;81.10
24232;DHT22;12364;47.810;8.810;2023-03-23T18:13:24;18.90;81.40
24232;DHT22;12364;47.810;8.810;2023-03-23T18:15:54;19.00;80.90
24232;DHT22;12364;47.810;8.810;2023-03-23T18:18:22;18.90;81.00
24232;DHT22;12364;47.810;8.810;2023-03-23T18:20:53;18.90;81.40
24232;DHT22;12364;47.810;8.810;2023-03-23T18:23:20;18.90;81.00
24232;DHT22;12364;47.810;8.810;2023-03-23T18:25:47;18.90;81.20
24232;DHT22;12364;47.810;8.810;2023-03-23T18:28:14;19.00;81.10
24232;DHT22;12364;47.810;8.810;2023-03-23T18:30:42;19.00;81.00
24232;DHT22;12364;47.810;8.810;2023-03-23T18:33:15;19.00;81.10
24232;DHT22;12364;47.810;8.810;2023-03-23T18:35:45;18.90;81.20
24232;DHT22;12364;47.810;8.810;2023-03-23T18:38:12;19.10;82.10
24232;DHT22;12364;47.810;8.810;2023-03-23T18:40:43;18.90;81.00
24232;DHT22;12364;47.810;8.810;2023-03-23T18:43:10;18.90;81.40
24232;DHT22;12364;47.810;8.810;2023-03-23T18:45:38;18.90;81.60
24232;DHT22;12364;47.810;8.810;2023-03-23T18:48:05;18.90;82.40
24232;DHT22;12364;47.810;8.810;2023-03-23T18:50:33;18.90;82.30
24232;DHT22;12364;47.810;8.810;2023-03-23T18:53:00;18.90;82.40
24232;DHT22;12364;47.810;8.810;2023-03-23T18:55:26;18.90;82.70
24232;DHT22;12364;47.810;8.810;2023-03-23T18:57:54;18.90;82.70
24232;DHT22;12364;47.810;8.810;2023-03-23T19:00:21;18.90;82.50
24232;DHT22;12364;47.810;8.810;2023-03-23T19:02:48;18.90;82.50
24232;DHT22;12364;47.810;8.810;2023-03-23T19:05:18;18.90;82.80
24232;DHT22;12364;47.810;8.810;2023-03-23T19:07:45;18.90;82.40
24232;DHT22;12364;47.810;8.810;2023-03-23T19:10:12;18.90;82.30
24232;DHT22;12364;47.810;8.810;2023-03-23T19:12:39;18.80;82.20
24232;DHT22;12364;47.810;8.810;2023-03-23T19:15:06;18.80;82.00
24232;DHT22;12364;47.810;8.810;2023-03-23T19:17:34;18.80;82.60
24232;DHT22;12364;47.810;8.810;2023-03-23T19:20:01;18.80;82.10
24232;DHT22;12364;47.810;8.810;2023-03-23T19:22:28;18.70;82.40
24232;DHT22;12364;47.810;8.810;2023-03-23T19:24:55;18.80;82.60
24232;DHT22;12364;47.810;8.810;2023-03-23T19:27:22;18.90;83.00
24232;DHT22;12364;47.810;8.810;2023-03-23T19:29:49;18.70;82.80
24232;DHT22;12364;47.810;8.810;2023-03-23T19:32:16;18.70;82.90
24232;DHT22;12364;47.810;8.810;2023-03-23T19:34:43;18.70;82.80
24232;DHT22;12364;47.810;8.810;2023-03-23T19:37:16;18.70;82.50
24232;DHT22;12364;47.810;8.810;2023-03-23T19:39:43;18.70;82.60
24232;DHT22;12364;47.810;8.810;2023-03-23T19:42:10;18.80;82.80
24232;DHT22;12364;47.810;8.810;2023-03-23T19:44:37;18.70;82.40
24232;DHT22;12364;47.810;8.810;2023-03-23T19:47:04;18.70;82.30
24232;DHT22;12364;47.810;8.810;2023-03-23T19:49:33;18.80;82.90
24232;DHT22;12364;47.810;8.810;2023-03-23T19:52:00;18.70;82.40
24232;DHT22;12364;47.810;8.810;2023-03-23T19:54:36;18.70;81.50
24232;DHT22;12364;47.810;8.810;2023-03-23T19:57:03;18.60;82.00
24232;DHT22;12364;47.810;8.810;2023-03-23T19:59:31;18.60;81.70
24232;DHT22;12364;47.810;8.810;2023-03-23T20:01:58;18.60;81.90
24232;DHT22;12364;47.810;8.810;2023-03-23T20:04:25;18.60;81.90
24232;DHT22;12364;47.810;8.810;2023-03-23T20:06:54;18.60;81.90
24232;DHT22;12364;47.810;8.810;2023-03-23T20:09:22;18.60;82.50
24232;DHT22;12364;47.810;8.810;2023-03-23T20:11:51;18.60;82.30
24232;DHT22;12364;47.810;8.810;2023-03-23T20:14:19;18.60;82.90
24232;DHT22;12364;47.810;8.810;2023-03-23T20:16:46;18.60;82.50
24232;DHT22;12364;47.810;8.810;2023-03-23T20:19:13;18.60;82.60
24232;DHT22;12364;47.810;8.810;2023-03-23T20:21:40;18.60;82.90
24232;DHT22;12364;47.810;8.810;2023-03-23T20:24:07;18.50;82.70
24232;DHT22;12364;47.810;8.810;2023-03-23T20:26:36;18.50;82.80
24232;DHT22;12364;47.810;8.810;2023-03-23T20:29:03;18.50;83.10
24232;DHT22;12364;47.810;8.810;2023-03-23T20:31:32;18.40;83.60
24232;DHT22;12364;47.810;8.810;2023-03-23T20:34:04;18.40;83.40
24232;DHT22;12364;47.810;8.810;2023-03-23T20:36:33;18.50;83.50
24232;DHT22;12364;47.810;8.810;2023-03-23T20:39:06;18.40;83.70
24232;DHT22;12364;47.810;8.810;2023-03-23T20:41:34;18.40;83.50
24232;DHT22;12364;47.810;8.810;2023-03-23T20:44:05;18.30;83.50
24232;DHT22;12364;47.810;8.810;2023-03-23T20:46:32;18.30;83.30
24232;DHT22;12364;47.810;8.810;2023-03-23T20:49:02;18.30;83.80
24232;DHT22;12364;47.810;8.810;2023-03-23T20:51:31;18.30;83.90
24232;DHT22;12364;47.810;8.810;2023-03-23T20:53:59;18.20;83.90
24232;DHT22;12364;47.810;8.810;2023-03-23T20:56:27;18.10;84.40
24232;DHT22;12364;47.810;8.810;2023-03-23T20:58:54;18.20;84.70
24232;DHT22;12364;47.810;8.810;2023-03-23T21:01:21;18.10;84.90
24232;DHT22;12364;47.810;8.810;2023-03-23T21:03:48;18.10;85.20
24232;DHT22;12364;47.810;8.810;2023-03-23T21:06:19;18.10;84.90
24232;DHT22;12364;47.810;8.810;2023-03-23T21:08:46;18.10;84.80
24232;DHT22;12364;47.810;8.810;2023-03-23T21:11:18;18.00;84.80
24232;DHT22;12364;47.810;8.810;2023-03-23T21:13:45;18.00;85.10
24232;DHT22;12364;47.810;8.810;2023-03-23T21:16:12;18.00;85.30
24232;DHT22;12364;47.810;8.810;2023-03-23T21:18:39;18.00;85.30
24232;DHT22;12364;47.810;8.810;2023-03-23T21:21:07;17.90;85.30
24232;DHT22;12364;47.810;8.810;2023-03-23T21:23:37;17.90;85.50
24232;DHT22;12364;47.810;8.810;2023-03-23T21:26:05;17.80;85.90
24232;DHT22;12364;47.810;8.810;2023-03-23T21:28:33;17.80;85.70
24232;DHT22;12364;47.810;8.810;2023-03-23T21:31:01;17.80;85.70
24232;DHT22;12364;47.810;8.810;2023-03-23T21:33:29;17.70;85.50
24232;DHT22;12364;47.810;8.810;2023-03-23T21:35:56;17.70;85.80
24232;DHT22;12364;47.810;8.810;2023-03-23T21:38:23;17.70;86.00
24232;DHT22;12364;47.810;8.810;2023-03-23T21:40:54;17.70;86.00
24232;DHT22;12364;47.810;8.810;2023-03-23T21:43:21;17.60;86.00
24232;DHT22;12364;47.810;8.810;2023-03-23T21:45:56;17.70;85.70
24232;DHT22;12364;47.810;8.810;2023-03-23T21:48:25;17.60;85.90
24232;DHT22;12364;47.810;8.810;2023-03-23T21:50:52;17.60;85.90